»·PEaware :: N147TH KBAB-KBAM

N147TH :: KBAB-KBAM

FLIGHT INFORMATION

Flight Status: Arrived
Operator: Privately registered:
United States
More flights under this callsign
Pilot: Teofilo H. (11827)
Aircraft: CESSNA 550 CITATION 2/S2/BRAVO
(C550)
More flights by this aircraft type
Origin: KBAB Beale AFB
United States
Destination: KBAM Battle Mountain
United States
More flights between these airports :: More routes between these airports
Route: RANGO V200 FMG V6 CUTVA
File this flight plan on PilotEdge
Remarks: RMK / SIMBRIEF
Altitude:
(Current/Filed)
17,000ft
Speed:
(Current/Filed)
288kts
Departed: 01-May-19 04:29 AM
Arrived: 01-May-19 05:17 AM
Distance/Time
Traveled:
228nm/0:48
Distance/Time
To Go:
Arrived

Flight Plot

Page will automatically refresh every two minutes.

Flight plan parsing failed; only flown route is shown


Map Options




Map Legend


Flown Route
Filed Route
Departure Airport
Arrival Airport
Navaid (VOR, NDB)
Fix

Horizontal Profiles

Position Reports

Time Latitude Longitude Heading Altitude Ground
Speed
01-May-19 04:23 39.145236 -121.433130 245 114ft 0kts
01-May-19 04:24 39.144432 -121.433706 163 112ft 11kts
01-May-19 04:25 39.140821 -121.432446 220 121ft 14kts
01-May-19 04:26 39.136466 -121.431388 160 123ft 20kts
01-May-19 04:27 39.132440 -121.434042 259 105ft 24kts
01-May-19 04:28 39.157789 -121.445506 350 1567ft 162kts
01-May-19 04:29 39.181603 -121.392169 69 5256ft 214kts
01-May-19 04:30 39.203044 -121.311171 71 7873ft 265kts
01-May-19 04:31 39.226668 -121.220281 70 10204ft 274kts
01-May-19 04:32 39.251485 -121.124752 69 12159ft 287kts
01-May-19 04:33 39.272996 -121.022612 73 13893ft 301kts
01-May-19 04:34 39.293489 -120.915809 72 15372ft 315kts
01-May-19 04:35 39.315104 -120.804467 72 16808ft 323kts
01-May-19 04:36 39.337229 -120.690164 72 17002ft 330kts
01-May-19 04:37 39.359431 -120.574711 72 17002ft 332kts
01-May-19 04:38 39.381640 -120.458283 72 17002ft 333kts
01-May-19 04:39 39.403735 -120.341787 73 17001ft 333kts
01-May-19 04:40 39.425748 -120.225207 73 17001ft 333kts
01-May-19 04:41 39.447560 -120.108798 73 17052ft 331kts
01-May-19 04:42 39.469086 -119.993332 73 17105ft 330kts
01-May-19 04:43 39.490676 -119.876833 73 17110ft 332kts
01-May-19 04:44 39.512068 -119.760773 73 17110ft 332kts
01-May-19 04:45 39.537500 -119.645967 55 17111ft 326kts
01-May-19 04:46 39.589960 -119.550717 49 17114ft 325kts
01-May-19 04:47 39.642811 -119.455978 49 17118ft 325kts
01-May-19 04:48 39.695792 -119.360626 49 17120ft 325kts
01-May-19 04:49 39.748639 -119.265264 50 17116ft 325kts
01-May-19 04:50 39.801404 -119.169783 50 17117ft 325kts
01-May-19 04:51 39.854012 -119.074317 50 17117ft 325kts
01-May-19 04:52 39.906849 -118.978134 50 17117ft 326kts
01-May-19 04:53 39.959380 -118.882198 49 17117ft 326kts
01-May-19 04:54 40.011963 -118.785870 50 17118ft 325kts
01-May-19 04:55 40.064427 -118.689491 50 17117ft 324kts
01-May-19 04:56 40.116883 -118.592834 50 17003ft 326kts
01-May-19 04:57 40.151675 -118.481773 66 17003ft 331kts
01-May-19 04:58 40.182917 -118.368405 66 17003ft 330kts
01-May-19 04:59 40.213498 -118.256748 66 17000ft 330kts
01-May-19 05:00 40.244412 -118.143440 66 17000ft 330kts
01-May-19 05:01 40.275252 -118.029945 66 17002ft 330kts
01-May-19 05:02 40.305921 -117.916561 66 17006ft 331kts
01-May-19 05:03 40.336223 -117.803855 66 16626ft 320kts
01-May-19 05:04 40.365710 -117.693862 67 15235ft 319kts
01-May-19 05:05 40.394875 -117.584756 67 13841ft 315kts
01-May-19 05:06 40.425037 -117.481235 66 12440ft 281kts
01-May-19 05:07 40.451318 -117.391054 66 11035ft 253kts
01-May-19 05:08 40.475748 -117.306339 68 9630ft 246kts
01-May-19 05:09 40.500037 -117.221889 69 9010ft 251kts
01-May-19 05:10 40.525176 -117.134095 69 9009ft 260kts
01-May-19 05:11 40.545423 -117.042726 80 7978ft 239kts
01-May-19 05:12 40.553023 -116.966313 77 6437ft 161kts
01-May-19 05:13 40.567696 -116.924820 50 5222ft 108kts
01-May-19 05:14 40.587547 -116.894586 48 4757ft 112kts
01-May-19 05:15 40.603713 -116.870080 48 4532ft 49kts
01-May-19 05:16 40.606701 -116.867812 253 4529ft 16kts
01-May-19 05:17 40.607197 -116.873434 323 4529ft 5kts
01-May-19 05:18 40.607265 -116.873471 345 4529ft 0kts
01-May-19 05:19 40.607265 -116.873471 345 4529ft 0kts
01-May-19 05:20 40.607265 -116.873471 345 4529ft 0kts
01-May-19 05:21 40.607265 -116.873471 345 4529ft 0kts
01-May-19 05:22 40.607265 -116.873471 345 4529ft 0kts
01-May-19 05:23 40.607265 -116.873471 345 4529ft 0kts
01-May-19 05:24 40.607265 -116.873471 345 4529ft 0kts
01-May-19 05:25 40.607265 -116.873471 345 4529ft 0kts
01-May-19 05:26 40.607265 -116.873471 345 4529ft 0kts
01-May-19 05:27 40.607265 -116.873471 345 4529ft 0kts
01-May-19 05:28 40.607265 -116.873471 345 4529ft 0kts
01-May-19 05:29 40.607265 -116.873471 345 4529ft 0kts
01-May-19 05:30 40.607265 -116.873471 345 4529ft 0kts
01-May-19 05:31 40.607265 -116.873471 345 4529ft 0kts

Navigation Log

Ident Type
Flight plan parsing failed, navigation log unavailable